»·PEaware :: N219ME 67L-L77

N219ME :: 67L-L77

FLIGHT INFORMATION

Flight Status: Arrived
Operator: Privately registered:
United States
More flights under this callsign
Pilot: Mark E. (33670)
Aircraft: CESSNA 182 SKYLANE
(C182)
More flights by this aircraft type
Origin: 67L Mesquite
United States
Destination: L77 Chiriaco Summit
United States
More flights between these airports :: More routes between these airports
Route: MMM GFS JOTNU DROGO
File this flight plan on PilotEdge
Remarks:
Altitude:
(Current/Filed)
10,500ft
Speed:
(Current/Filed)
145kts
Departed: 30-Nov-21 03:37 PM
Arrived: 30-Nov-21 05:04 PM
Distance/Time
Traveled:
207nm/1:27
Distance/Time
To Go:
Arrived

Flight Plot

Page will automatically refresh every two minutes.

Flight plan parsing failed; only flown route is shown


Map Options




Map Legend


Flown Route
Filed Route
Departure Airport
Arrival Airport
Navaid (VOR, NDB)
Fix

Horizontal Profiles

Position Reports

Time Latitude Longitude Heading Altitude Ground
Speed
30-Nov-21 15:27 36.846631 -114.054300 209 602ft 0kts
30-Nov-21 15:28 36.846631 -114.054300 209 1953ft 0kts
30-Nov-21 15:29 36.846631 -114.054300 209 1953ft 0kts
30-Nov-21 15:30 36.846470 -114.055562 255 1953ft 10kts
30-Nov-21 15:31 36.846377 -114.055836 211 1953ft 0kts
30-Nov-21 15:32 36.846376 -114.055836 211 1953ft 0kts
30-Nov-21 15:33 36.846376 -114.055837 211 1953ft 0kts
30-Nov-21 15:34 36.846375 -114.055837 211 1953ft 0kts
30-Nov-21 15:35 36.846374 -114.055838 211 1953ft 0kts
30-Nov-21 15:36 36.833282 -114.066122 216 2309ft 73kts
30-Nov-21 15:37 36.824407 -114.090815 256 3099ft 80kts
30-Nov-21 15:38 36.817883 -114.117250 253 3923ft 79kts
30-Nov-21 15:39 36.810196 -114.143039 249 4750ft 78kts
30-Nov-21 15:40 36.802466 -114.169035 252 5576ft 79kts
30-Nov-21 15:41 36.794554 -114.195023 249 6422ft 81kts
30-Nov-21 15:42 36.785801 -114.221019 249 7227ft 81kts
30-Nov-21 15:43 36.778528 -114.248223 250 7993ft 83kts
30-Nov-21 15:44 36.768525 -114.274542 245 8710ft 84kts
30-Nov-21 15:45 36.748574 -114.287975 200 9350ft 89kts
30-Nov-21 15:46 36.723846 -114.302842 204 9890ft 108kts
30-Nov-21 15:47 36.694733 -114.319248 204 10411ft 119kts
30-Nov-21 15:48 36.661352 -114.337990 204 10506ft 143kts
30-Nov-21 15:49 36.624327 -114.358725 204 10503ft 147kts
30-Nov-21 15:50 36.586986 -114.379695 204 10503ft 147kts
30-Nov-21 15:51 36.549458 -114.400645 204 10502ft 147kts
30-Nov-21 15:52 36.511936 -114.421567 204 10502ft 147kts
30-Nov-21 15:53 36.474372 -114.442513 204 10502ft 148kts
30-Nov-21 15:54 36.436818 -114.463434 204 10502ft 148kts
30-Nov-21 15:55 36.399257 -114.484337 204 10502ft 148kts
30-Nov-21 15:56 36.361674 -114.505230 204 10502ft 148kts
30-Nov-21 15:57 36.324125 -114.526082 204 10502ft 148kts
30-Nov-21 15:58 36.286557 -114.546922 204 10502ft 148kts
30-Nov-21 15:59 36.249022 -114.567722 204 10502ft 148kts
30-Nov-21 16:00 36.211505 -114.588491 204 10502ft 148kts
30-Nov-21 16:01 36.173844 -114.609317 204 10502ft 148kts
30-Nov-21 16:02 36.136302 -114.630055 204 10502ft 148kts
30-Nov-21 16:03 36.098652 -114.650831 204 10502ft 148kts
30-Nov-21 16:04 36.061050 -114.671559 204 10502ft 148kts
30-Nov-21 16:05 36.023537 -114.692216 204 10502ft 148kts
30-Nov-21 16:06 35.985845 -114.712949 203 10502ft 148kts
30-Nov-21 16:07 35.948243 -114.733612 203 10502ft 148kts
30-Nov-21 16:08 35.910580 -114.754287 203 10502ft 148kts
30-Nov-21 16:09 35.872963 -114.774914 203 10502ft 148kts
30-Nov-21 16:11 35.835410 -114.795485 203 10502ft 148kts
30-Nov-21 16:12 35.797776 -114.816079 203 10502ft 148kts
30-Nov-21 16:13 35.760148 -114.836648 203 10502ft 148kts
30-Nov-21 16:14 35.722496 -114.857209 203 10502ft 148kts
30-Nov-21 16:15 35.684839 -114.877752 203 10502ft 148kts
30-Nov-21 16:16 35.647170 -114.898279 203 10502ft 148kts
30-Nov-21 16:17 35.609524 -114.918774 203 10502ft 148kts
30-Nov-21 16:18 35.571815 -114.939280 203 10502ft 148kts
30-Nov-21 16:19 35.534068 -114.959787 203 10502ft 148kts
30-Nov-21 16:20 35.496402 -114.980229 203 10502ft 148kts
30-Nov-21 16:21 35.458763 -115.000635 203 10502ft 148kts
30-Nov-21 16:22 35.420985 -115.021095 203 10502ft 148kts
30-Nov-21 16:23 35.383265 -115.041503 203 10502ft 148kts
30-Nov-21 16:24 35.345624 -115.061847 203 10502ft 148kts
30-Nov-21 16:25 35.307919 -115.082206 203 10502ft 148kts
30-Nov-21 16:26 35.270192 -115.102555 203 10502ft 148kts
30-Nov-21 16:27 35.232454 -115.122890 203 10502ft 148kts
30-Nov-21 16:28 35.194648 -115.143241 203 10502ft 148kts
30-Nov-21 16:29 35.156971 -115.163503 203 10502ft 148kts
30-Nov-21 16:30 35.118877 -115.182861 198 10503ft 148kts
30-Nov-21 16:31 35.079973 -115.199228 199 10502ft 148kts
30-Nov-21 16:32 35.041035 -115.216354 199 10502ft 148kts
30-Nov-21 16:33 35.002257 -115.233491 199 10502ft 148kts
30-Nov-21 16:34 34.963534 -115.250596 199 10502ft 148kts
30-Nov-21 16:35 34.924703 -115.267733 199 10502ft 148kts
30-Nov-21 16:36 34.885881 -115.284849 199 10502ft 148kts
30-Nov-21 16:36 34.853506 -115.299110 199 10502ft 148kts
30-Nov-21 16:37 34.814789 -115.316148 199 10502ft 148kts
30-Nov-21 16:39 34.765217 -115.337939 199 10502ft 148kts
30-Nov-21 16:40 34.726448 -115.354961 199 10502ft 148kts
30-Nov-21 16:40 34.694037 -115.369178 199 10502ft 148kts
30-Nov-21 16:41 34.655183 -115.386207 199 10502ft 148kts
30-Nov-21 16:42 34.616353 -115.403208 199 10502ft 148kts
30-Nov-21 16:44 34.571114 -115.422993 199 10502ft 148kts
30-Nov-21 16:44 34.538814 -115.437106 199 10502ft 148kts
30-Nov-21 16:45 34.497728 -115.455050 199 10477ft 158kts
30-Nov-21 16:46 34.459506 -115.471714 199 10502ft 149kts
30-Nov-21 16:47 34.420050 -115.488897 199 10502ft 148kts
30-Nov-21 16:48 34.381164 -115.505820 199 10502ft 148kts
30-Nov-21 16:49 34.304545 -115.541450 205 10502ft 150kts
30-Nov-21 16:50 34.204935 -115.598045 205 10502ft 148kts
30-Nov-21 16:51 34.167586 -115.619158 205 10502ft 148kts
30-Nov-21 16:52 34.068696 -115.674961 205 10502ft 148kts
30-Nov-21 16:53 33.949318 -115.742132 205 10502ft 148kts
30-Nov-21 16:54 33.911109 -115.763587 205 10140ft 163kts
30-Nov-21 16:55 33.868843 -115.787316 205 9142ft 163kts
30-Nov-21 16:56 33.830328 -115.808893 204 8140ft 147kts
30-Nov-21 16:57 33.792868 -115.804183 150 7148ft 144kts
30-Nov-21 16:58 33.754204 -115.794268 173 6154ft 141kts
30-Nov-21 16:59 33.715315 -115.788831 173 5154ft 140kts
30-Nov-21 17:00 33.679755 -115.779343 157 4117ft 123kts
30-Nov-21 17:01 33.656622 -115.752718 95 2729ft 113kts
30-Nov-21 17:02 33.661703 -115.725429 72 1966ft 64kts
30-Nov-21 17:03 33.664330 -115.714753 254 1716ft 10kts
30-Nov-21 17:04 33.662385 -115.718270 149 1716ft 10kts
30-Nov-21 17:05 33.662725 -115.718416 162 1716ft 14kts

Navigation Log

Ident Type
Flight plan parsing failed, navigation log unavailable